Overview Statistics Trail Chart Weather Telemetry Raw packets
 

This is the latest recevied weather packets stored in our database for station/object I1SXT-13. If no packets are shown the sender has not sent any weather packets the latest 10 day(s).

<< 4 5 6 7 8 9 10 >>
Time Temp. Humidity Pressure Rain* Wind** Luminosity Snow
1788372862 23.89° C 87% 1020.6 hPa 0 mm - - -
1788367466 26.67° C 77% 1021 hPa 0 mm - - -
1788364464 27.78° C 73% 1021 hPa 0 mm - - -
1788362967 28.89° C 70% 1021.3 hPa 0 mm - - -
1788359067 28.89° C 69% 1021.1 hPa 0 mm - - -
1788356962 30° C 65% 1021.3 hPa 0 mm - - -
1788355761 29.44° C 68% 1021.2 hPa 0 mm - - -
1788351863 28.89° C 70% 1021.5 hPa 0 mm - - -
1788343466 27.22° C 74% 1022.9 hPa 0 mm - - -
1788342265 27.22° C 74% 1022.5 hPa 0 mm - - -
1788337467 25.56° C 71% 1021.8 hPa 0 mm - - -
1788335962 25° C 74% 1022.8 hPa 0 mm - - -
1788335666 25° C 74% 1021.7 hPa 0 mm - - -
1788335065 24.44° C 76% 1021.4 hPa 0 mm - - -
1788331766 22.78° C 81% 1021.5 hPa 0 mm - - -
1788331166 22.78° C 80% 1022.1 hPa 0 mm - - -
1788330863 22.22° C 80% 1021.9 hPa 0 mm - - -
1788330566 22.22° C 82% 1022.4 hPa 0 mm - - -
1788329662 21.67° C 85% 1021.5 hPa 0 mm - - -
1788327868 21.67° C 82% 1021.9 hPa 0 mm - - -
1788324867 21.11° C 82% 1022.2 hPa 0 mm - - -
1788324266 21.11° C 83% 1022 hPa 0 mm - - -
1788321562 21.11° C 85% 1022.1 hPa 0 mm - - -
1788321265 21.11° C 86% 1022.1 hPa 0 mm - - -
1788320962 21.11° C 86% 1021.5 hPa 0 mm - - -

* Rain since midnight (hover to see other rain measurements)
** Current wind speed in m/s (hover to see current wind gust speed)